createdAt,value
2022-10-01T00:08:02.653Z,12.9
2022-10-01T00:28:04.003Z,12.8
2022-10-01T00:38:04.126Z,12.8
2022-10-01T00:48:05.097Z,12.7
2022-10-01T00:58:05.175Z,12.5
2022-10-01T01:08:05.333Z,11.9
2022-10-01T01:18:05.680Z,11.5
2022-10-01T01:28:05.783Z,11.3
2022-10-01T01:38:06.428Z,11.1
2022-10-01T01:48:06.751Z,10.9
2022-10-01T01:58:07.284Z,10.9
2022-10-01T02:18:07.954Z,10.7
2022-10-01T02:38:08.886Z,10.6
2022-10-01T02:48:09.047Z,10.5
2022-10-01T02:58:10.007Z,10.5
2022-10-01T03:18:10.303Z,10.4
2022-10-01T03:28:10.523Z,10.4
2022-10-01T03:38:10.582Z,10.4
2022-10-01T03:48:10.956Z,10.4
2022-10-01T03:58:11.667Z,10.4
2022-10-01T04:08:23.534Z,10.3
2022-10-01T04:18:12.930Z,10.4
2022-10-01T04:28:13.415Z,10.4
2022-10-01T04:48:14.199Z,10.6
2022-10-01T04:58:14.357Z,10.7
2022-10-01T05:08:21.474Z,10.9
2022-10-01T05:18:15.418Z,11
2022-10-01T05:28:19.784Z,11
2022-10-01T05:38:16.285Z,10.9
2022-10-01T05:48:16.754Z,10.9
2022-10-01T05:58:16.988Z,10.9
2022-10-01T06:08:17.197Z,10.9
2022-10-01T06:18:25.044Z,10.9
2022-10-01T06:28:18.646Z,11
2022-10-01T06:38:18.883Z,11
2022-10-01T06:48:19.896Z,11.1
2022-10-01T06:58:20.206Z,11.1
2022-10-01T07:18:21.308Z,11.2
2022-10-01T07:28:22.221Z,11.4
2022-10-01T07:48:23.085Z,11.5
2022-10-01T07:58:23.832Z,11.6
2022-10-01T08:08:24.186Z,11.8
2022-10-01T08:18:24.599Z,12
2022-10-01T08:28:25.569Z,12.3
2022-10-01T08:38:25.796Z,12.7
2022-10-01T08:48:26.004Z,13
2022-10-01T08:58:26.741Z,13.2
2022-10-01T09:08:27.589Z,13.3
2022-10-01T09:28:28.822Z,14.2
2022-10-01T09:38:29.538Z,14
2022-10-01T09:48:29.658Z,13.9
2022-10-01T10:08:30.605Z,14.1
2022-10-01T10:18:31.058Z,13.9
2022-10-01T10:28:33.546Z,14.1
2022-10-01T10:38:32.170Z,14.2
2022-10-01T10:48:33.150Z,14.8
2022-10-01T10:58:33.617Z,15
2022-10-01T11:18:34.015Z,16.4
2022-10-01T11:28:34.261Z,16.8
2022-10-01T11:38:34.857Z,15.7
2022-10-01T11:48:35.034Z,16.1
2022-10-01T12:08:36.913Z,16.6
2022-10-01T12:18:37.944Z,16.3
2022-10-01T12:28:38.674Z,15.4
2022-10-01T12:48:39.412Z,15.9
2022-10-01T12:58:40.038Z,15.2
2022-10-01T12:58:45.313Z,15.2
2022-10-01T13:08:46.212Z,14.3
2022-10-01T13:18:47.213Z,13.6
2022-10-01T13:28:54.838Z,13.7
2022-10-01T13:38:48.484Z,13.7
2022-10-01T13:48:49.251Z,13.3
2022-10-01T14:08:50.371Z,14.9
2022-10-01T14:18:50.652Z,15.4
2022-10-01T14:28:58.636Z,15.2
2022-10-01T14:38:51.990Z,15.3
2022-10-01T14:48:52.156Z,15.2
2022-10-01T14:58:52.926Z,14.5
2022-10-01T15:09:00.252Z,13.9
2022-10-01T15:18:53.281Z,13.7
2022-10-01T15:28:53.486Z,14.3
2022-10-01T15:38:53.676Z,14.3
2022-10-01T15:48:54.072Z,14.6
2022-10-01T15:58:54.765Z,14.8
2022-10-01T16:08:54.891Z,14.9
2022-10-01T16:18:55.161Z,14.7
2022-10-01T16:28:55.610Z,14.6
2022-10-01T16:38:56.395Z,14.4
2022-10-01T16:58:58.122Z,14.4
2022-10-01T17:18:59.662Z,13.9
2022-10-01T17:28:59.855Z,13.6
2022-10-01T17:39:00.216Z,13.5
2022-10-01T17:59:00.921Z,13.4
2022-10-01T18:09:01.561Z,13.4
2022-10-01T18:29:02.587Z,13.3
2022-10-01T18:39:02.907Z,13.2
2022-10-01T18:49:03.417Z,12.9
2022-10-01T18:59:10.693Z,12.6
2022-10-01T19:09:04.062Z,12.1
2022-10-01T19:19:04.653Z,12
2022-10-01T19:29:05.098Z,12.1
2022-10-01T19:49:05.646Z,12.4
2022-10-01T19:59:06.322Z,12.3
2022-10-01T20:09:06.531Z,12.1
2022-10-01T20:19:06.734Z,12.1
2022-10-01T20:29:07.459Z,12.1
2022-10-01T20:39:08.088Z,12
2022-10-01T20:49:08.289Z,12
2022-10-01T20:59:08.716Z,12
2022-10-01T21:09:09.474Z,12.2
2022-10-01T21:19:10.069Z,12.3
2022-10-01T21:29:10.537Z,12.3
2022-10-01T21:39:11.244Z,12.3
2022-10-01T21:49:11.330Z,12.2
2022-10-01T21:59:12.106Z,12.2
2022-10-01T22:09:12.546Z,12.3
2022-10-01T22:19:13.577Z,12.2
2022-10-01T22:29:13.773Z,12.2
2022-10-01T22:49:14.297Z,12.3
2022-10-01T22:59:14.638Z,12.2
2022-10-01T23:09:14.662Z,12.1
2022-10-01T23:19:15.508Z,12.2
2022-10-01T23:29:15.860Z,12.1
2022-10-01T23:39:16.100Z,12.1
2022-10-01T23:49:16.651Z,12.2
2022-10-01T23:59:17.267Z,12.3
